sensor_id;sensor_type;location;lat;lon;timestamp;temperature;humidity
11083;DHT22;5595;50.186;8.468;2023-04-03T00:00:30;4.20;99.90
11083;DHT22;5595;50.186;8.468;2023-04-03T00:02:58;4.10;99.90
11083;DHT22;5595;50.186;8.468;2023-04-03T00:05:24;4.10;99.90
11083;DHT22;5595;50.186;8.468;2023-04-03T00:07:53;4.20;99.90
11083;DHT22;5595;50.186;8.468;2023-04-03T00:10:20;4.20;99.90
11083;DHT22;5595;50.186;8.468;2023-04-03T00:12:47;4.30;99.90
11083;DHT22;5595;50.186;8.468;2023-04-03T00:15:14;4.10;99.90
11083;DHT22;5595;50.186;8.468;2023-04-03T00:17:40;4.20;99.90
11083;DHT22;5595;50.186;8.468;2023-04-03T00:20:08;4.20;99.90
11083;DHT22;5595;50.186;8.468;2023-04-03T00:22:35;4.20;99.90
11083;DHT22;5595;50.186;8.468;2023-04-03T00:25:03;4.20;99.90
11083;DHT22;5595;50.186;8.468;2023-04-03T00:27:30;4.10;99.90
11083;DHT22;5595;50.186;8.468;2023-04-03T00:29:57;4.30;99.90
11083;DHT22;5595;50.186;8.468;2023-04-03T00:32:24;4.40;99.90
11083;DHT22;5595;50.186;8.468;2023-04-03T00:34:51;4.30;99.90
11083;DHT22;5595;50.186;8.468;2023-04-03T00:37:18;4.30;99.90
11083;DHT22;5595;50.186;8.468;2023-04-03T00:39:44;4.30;99.90
11083;DHT22;5595;50.186;8.468;2023-04-03T00:42:13;4.40;99.90
11083;DHT22;5595;50.186;8.468;2023-04-03T00:47:44;4.40;99.90
11083;DHT22;5595;50.186;8.468;2023-04-03T00:50:11;4.30;99.90
11083;DHT22;5595;50.186;8.468;2023-04-03T00:52:39;4.40;99.90
11083;DHT22;5595;50.186;8.468;2023-04-03T00:55:08;4.40;99.90
11083;DHT22;5595;50.186;8.468;2023-04-03T00:57:37;4.40;99.90
11083;DHT22;5595;50.186;8.468;2023-04-03T01:00:08;4.40;99.90
11083;DHT22;5595;50.186;8.468;2023-04-03T01:02:39;4.40;99.90
11083;DHT22;5595;50.186;8.468;2023-04-03T01:05:07;4.40;99.90
11083;DHT22;5595;50.186;8.468;2023-04-03T01:07:34;4.40;99.90
11083;DHT22;5595;50.186;8.468;2023-04-03T01:10:06;4.40;99.90
11083;DHT22;5595;50.186;8.468;2023-04-03T01:12:34;4.50;99.90
11083;DHT22;5595;50.186;8.468;2023-04-03T01:15:06;4.40;99.90
11083;DHT22;5595;50.186;8.468;2023-04-03T01:17:36;4.40;99.90
11083;DHT22;5595;50.186;8.468;2023-04-03T01:23:16;4.40;99.90
11083;DHT22;5595;50.186;8.468;2023-04-03T01:25:46;4.40;99.90
11083;DHT22;5595;50.186;8.468;2023-04-03T01:28:15;4.50;99.90
11083;DHT22;5595;50.186;8.468;2023-04-03T01:30:47;4.30;99.90
11083;DHT22;5595;50.186;8.468;2023-04-03T01:33:16;4.40;99.90
11083;DHT22;5595;50.186;8.468;2023-04-03T01:35:43;4.40;99.90
11083;DHT22;5595;50.186;8.468;2023-04-03T01:38:10;4.40;99.90
11083;DHT22;5595;50.186;8.468;2023-04-03T01:40:37;4.30;99.90
11083;DHT22;5595;50.186;8.468;2023-04-03T01:43:04;4.30;99.90
11083;DHT22;5595;50.186;8.468;2023-04-03T01:45:31;4.30;99.90
11083;DHT22;5595;50.186;8.468;2023-04-03T01:47:58;4.30;99.90
11083;DHT22;5595;50.186;8.468;2023-04-03T01:50:26;4.30;99.90
11083;DHT22;5595;50.186;8.468;2023-04-03T01:52:53;4.30;99.90
11083;DHT22;5595;50.186;8.468;2023-04-03T01:55:20;4.20;99.90
11083;DHT22;5595;50.186;8.468;2023-04-03T01:57:47;4.30;99.90
11083;DHT22;5595;50.186;8.468;2023-04-03T02:00:14;4.40;99.90
11083;DHT22;5595;50.186;8.468;2023-04-03T02:02:42;4.20;99.90
11083;DHT22;5595;50.186;8.468;2023-04-03T02:05:09;4.20;99.90
11083;DHT22;5595;50.186;8.468;2023-04-03T02:07:37;4.20;99.90
11083;DHT22;5595;50.186;8.468;2023-04-03T02:10:04;4.30;99.90
11083;DHT22;5595;50.186;8.468;2023-04-03T02:12:31;4.20;99.90
11083;DHT22;5595;50.186;8.468;2023-04-03T02:14:58;4.20;99.90
11083;DHT22;5595;50.186;8.468;2023-04-03T02:17:26;4.20;99.90
11083;DHT22;5595;50.186;8.468;2023-04-03T02:19:53;4.20;99.90
11083;DHT22;5595;50.186;8.468;2023-04-03T02:22:20;4.10;99.90
11083;DHT22;5595;50.186;8.468;2023-04-03T02:24:48;4.20;99.90
11083;DHT22;5595;50.186;8.468;2023-04-03T02:27:15;4.20;99.90
11083;DHT22;5595;50.186;8.468;2023-04-03T02:29:42;4.10;99.90
11083;DHT22;5595;50.186;8.468;2023-04-03T02:32:08;4.10;99.90
11083;DHT22;5595;50.186;8.468;2023-04-03T02:34:35;4.30;99.90
11083;DHT22;5595;50.186;8.468;2023-04-03T02:37:02;4.10;99.90
11083;DHT22;5595;50.186;8.468;2023-04-03T02:39:29;4.00;99.90
11083;DHT22;5595;50.186;8.468;2023-04-03T02:41:57;4.00;99.90
11083;DHT22;5595;50.186;8.468;2023-04-03T02:44:24;4.00;99.90
11083;DHT22;5595;50.186;8.468;2023-04-03T02:46:51;4.00;99.90
11083;DHT22;5595;50.186;8.468;2023-04-03T02:49:18;3.90;99.90
11083;DHT22;5595;50.186;8.468;2023-04-03T02:51:45;3.80;99.90
11083;DHT22;5595;50.186;8.468;2023-04-03T02:54:13;3.90;99.90
11083;DHT22;5595;50.186;8.468;2023-04-03T02:56:40;3.90;99.90
11083;DHT22;5595;50.186;8.468;2023-04-03T02:59:08;3.80;99.90
11083;DHT22;5595;50.186;8.468;2023-04-03T03:01:35;3.80;99.90
11083;DHT22;5595;50.186;8.468;2023-04-03T03:04:02;3.70;99.90
11083;DHT22;5595;50.186;8.468;2023-04-03T03:06:28;3.70;99.90
11083;DHT22;5595;50.186;8.468;2023-04-03T03:08:55;3.60;99.90
11083;DHT22;5595;50.186;8.468;2023-04-03T03:11:22;3.60;99.90
11083;DHT22;5595;50.186;8.468;2023-04-03T03:13:49;3.60;99.90
11083;DHT22;5595;50.186;8.468;2023-04-03T03:16:17;3.60;99.90
11083;DHT22;5595;50.186;8.468;2023-04-03T03:18:44;3.60;99.90
11083;DHT22;5595;50.186;8.468;2023-04-03T03:21:11;3.60;99.90
11083;DHT22;5595;50.186;8.468;2023-04-03T03:23:38;3.60;99.90
11083;DHT22;5595;50.186;8.468;2023-04-03T03:26:07;3.40;99.90
11083;DHT22;5595;50.186;8.468;2023-04-03T03:28:35;3.50;99.90
11083;DHT22;5595;50.186;8.468;2023-04-03T03:31:03;3.50;99.90
11083;DHT22;5595;50.186;8.468;2023-04-03T03:33:31;3.40;99.90
11083;DHT22;5595;50.186;8.468;2023-04-03T03:35:59;3.40;99.90
11083;DHT22;5595;50.186;8.468;2023-04-03T03:38:26;3.40;99.90
11083;DHT22;5595;50.186;8.468;2023-04-03T03:40:53;3.30;99.90
11083;DHT22;5595;50.186;8.468;2023-04-03T03:43:20;3.30;99.90
11083;DHT22;5595;50.186;8.468;2023-04-03T03:45:50;3.30;99.90
11083;DHT22;5595;50.186;8.468;2023-04-03T03:48:18;3.20;99.90
11083;DHT22;5595;50.186;8.468;2023-04-03T03:50:46;3.20;99.90
11083;DHT22;5595;50.186;8.468;2023-04-03T03:53:13;3.20;99.90
11083;DHT22;5595;50.186;8.468;2023-04-03T03:55:40;3.20;99.90
11083;DHT22;5595;50.186;8.468;2023-04-03T03:58:07;3.10;99.90
11083;DHT22;5595;50.186;8.468;2023-04-03T04:00:34;3.00;99.90
11083;DHT22;5595;50.186;8.468;2023-04-03T04:03:01;3.00;99.90
11083;DHT22;5595;50.186;8.468;2023-04-03T04:05:28;2.90;99.90
11083;DHT22;5595;50.186;8.468;2023-04-03T04:07:57;2.90;99.90
11083;DHT22;5595;50.186;8.468;2023-04-03T04:10:24;2.90;99.90
11083;DHT22;5595;50.186;8.468;2023-04-03T04:12:51;2.90;99.90
11083;DHT22;5595;50.186;8.468;2023-04-03T04:15:18;2.80;99.90
11083;DHT22;5595;50.186;8.468;2023-04-03T04:17:47;2.80;99.90
11083;DHT22;5595;50.186;8.468;2023-04-03T04:20:14;2.70;99.90
11083;DHT22;5595;50.186;8.468;2023-04-03T04:22:41;2.80;99.90
11083;DHT22;5595;50.186;8.468;2023-04-03T04:25:09;2.70;99.90
11083;DHT22;5595;50.186;8.468;2023-04-03T04:27:36;2.60;99.90
11083;DHT22;5595;50.186;8.468;2023-04-03T04:30:04;2.60;99.90
11083;DHT22;5595;50.186;8.468;2023-04-03T04:32:31;2.60;99.90
11083;DHT22;5595;50.186;8.468;2023-04-03T04:34:59;2.60;99.90
11083;DHT22;5595;50.186;8.468;2023-04-03T04:37:26;2.40;99.90
11083;DHT22;5595;50.186;8.468;2023-04-03T04:39:53;2.40;99.90
11083;DHT22;5595;50.186;8.468;2023-04-03T04:42:21;2.50;99.90
11083;DHT22;5595;50.186;8.468;2023-04-03T04:44:48;2.40;99.90
11083;DHT22;5595;50.186;8.468;2023-04-03T04:47:15;2.30;99.90
11083;DHT22;5595;50.186;8.468;2023-04-03T04:49:42;2.30;99.90
11083;DHT22;5595;50.186;8.468;2023-04-03T04:52:09;2.20;99.90
11083;DHT22;5595;50.186;8.468;2023-04-03T04:54:36;2.30;99.90
11083;DHT22;5595;50.186;8.468;2023-04-03T04:57:03;2.30;99.90
11083;DHT22;5595;50.186;8.468;2023-04-03T04:59:32;2.20;99.90
11083;DHT22;5595;50.186;8.468;2023-04-03T05:01:59;2.20;99.90
11083;DHT22;5595;50.186;8.468;2023-04-03T05:04:26;2.10;99.90
11083;DHT22;5595;50.186;8.468;2023-04-03T05:06:53;2.10;99.90
11083;DHT22;5595;50.186;8.468;2023-04-03T05:09:20;2.10;99.90
11083;DHT22;5595;50.186;8.468;2023-04-03T05:11:47;2.00;99.90
11083;DHT22;5595;50.186;8.468;2023-04-03T05:14:14;2.00;99.90
11083;DHT22;5595;50.186;8.468;2023-04-03T05:16:42;2.00;99.90
11083;DHT22;5595;50.186;8.468;2023-04-03T05:19:09;1.80;99.90
11083;DHT22;5595;50.186;8.468;2023-04-03T05:21:35;1.90;99.90
11083;DHT22;5595;50.186;8.468;2023-04-03T05:24:03;2.00;99.90
11083;DHT22;5595;50.186;8.468;2023-04-03T05:26:30;2.00;99.90
11083;DHT22;5595;50.186;8.468;2023-04-03T05:28:57;2.00;99.90
11083;DHT22;5595;50.186;8.468;2023-04-03T05:31:24;2.10;99.90
11083;DHT22;5595;50.186;8.468;2023-04-03T05:33:52;2.10;99.90
11083;DHT22;5595;50.186;8.468;2023-04-03T05:36:19;2.20;99.90
11083;DHT22;5595;50.186;8.468;2023-04-03T05:38:46;2.20;99.90
11083;DHT22;5595;50.186;8.468;2023-04-03T05:41:14;2.30;99.90
11083;DHT22;5595;50.186;8.468;2023-04-03T05:43:41;2.30;99.90
11083;DHT22;5595;50.186;8.468;2023-04-03T05:46:10;2.40;99.90
11083;DHT22;5595;50.186;8.468;2023-04-03T05:48:38;2.40;99.90
11083;DHT22;5595;50.186;8.468;2023-04-03T05:51:07;2.50;99.90
11083;DHT22;5595;50.186;8.468;2023-04-03T05:53:36;2.50;99.90
11083;DHT22;5595;50.186;8.468;2023-04-03T05:56:04;2.50;99.90
11083;DHT22;5595;50.186;8.468;2023-04-03T05:58:31;2.60;99.90
11083;DHT22;5595;50.186;8.468;2023-04-03T06:00:57;2.60;99.90
11083;DHT22;5595;50.186;8.468;2023-04-03T06:03:25;2.80;99.90
11083;DHT22;5595;50.186;8.468;2023-04-03T06:05:52;2.70;99.90
11083;DHT22;5595;50.186;8.468;2023-04-03T06:08:20;2.80;99.90
11083;DHT22;5595;50.186;8.468;2023-04-03T06:10:47;2.70;99.90
11083;DHT22;5595;50.186;8.468;2023-04-03T06:13:14;2.90;99.90
11083;DHT22;5595;50.186;8.468;2023-04-03T06:15:41;3.00;99.90
11083;DHT22;5595;50.186;8.468;2023-04-03T06:18:08;3.20;99.90
11083;DHT22;5595;50.186;8.468;2023-04-03T06:20:35;3.40;99.90
11083;DHT22;5595;50.186;8.468;2023-04-03T06:23:02;3.40;99.90
11083;DHT22;5595;50.186;8.468;2023-04-03T06:25:30;3.70;99.90
11083;DHT22;5595;50.186;8.468;2023-04-03T06:27:57;3.80;99.90
11083;DHT22;5595;50.186;8.468;2023-04-03T06:30:24;4.10;99.90
11083;DHT22;5595;50.186;8.468;2023-04-03T06:32:51;4.20;99.90
11083;DHT22;5595;50.186;8.468;2023-04-03T06:35:18;4.30;99.90
11083;DHT22;5595;50.186;8.468;2023-04-03T06:37:46;4.30;99.90
11083;DHT22;5595;50.186;8.468;2023-04-03T06:40:19;4.50;99.90
11083;DHT22;5595;50.186;8.468;2023-04-03T06:42:48;4.50;99.90
11083;DHT22;5595;50.186;8.468;2023-04-03T06:45:15;4.70;99.90
11083;DHT22;5595;50.186;8.468;2023-04-03T06:47:42;4.50;99.90
11083;DHT22;5595;50.186;8.468;2023-04-03T06:50:10;4.50;99.90
11083;DHT22;5595;50.186;8.468;2023-04-03T06:52:39;4.40;99.90
11083;DHT22;5595;50.186;8.468;2023-04-03T06:55:07;4.50;99.90
11083;DHT22;5595;50.186;8.468;2023-04-03T06:57:35;4.50;99.90
11083;DHT22;5595;50.186;8.468;2023-04-03T07:00:05;4.50;99.90
11083;DHT22;5595;50.186;8.468;2023-04-03T07:02:32;4.60;99.90
11083;DHT22;5595;50.186;8.468;2023-04-03T07:05:00;4.70;99.90
11083;DHT22;5595;50.186;8.468;2023-04-03T07:07:28;4.80;99.90
11083;DHT22;5595;50.186;8.468;2023-04-03T07:09:55;5.10;99.90
11083;DHT22;5595;50.186;8.468;2023-04-03T07:12:22;4.80;99.90
11083;DHT22;5595;50.186;8.468;2023-04-03T07:14:48;4.80;99.90
11083;DHT22;5595;50.186;8.468;2023-04-03T07:17:17;4.90;99.90
11083;DHT22;5595;50.186;8.468;2023-04-03T07:19:44;4.80;99.90
11083;DHT22;5595;50.186;8.468;2023-04-03T07:22:11;4.90;99.90
11083;DHT22;5595;50.186;8.468;2023-04-03T07:24:37;4.90;99.90
11083;DHT22;5595;50.186;8.468;2023-04-03T07:27:05;4.90;99.90
11083;DHT22;5595;50.186;8.468;2023-04-03T07:29:33;5.10;99.90
11083;DHT22;5595;50.186;8.468;2023-04-03T07:32:00;4.90;99.90
11083;DHT22;5595;50.186;8.468;2023-04-03T07:34:29;5.00;99.90
11083;DHT22;5595;50.186;8.468;2023-04-03T07:36:56;5.00;99.90
11083;DHT22;5595;50.186;8.468;2023-04-03T07:39:23;5.00;99.90
11083;DHT22;5595;50.186;8.468;2023-04-03T07:41:51;5.10;99.90
11083;DHT22;5595;50.186;8.468;2023-04-03T07:44:18;5.00;99.90
11083;DHT22;5595;50.186;8.468;2023-04-03T07:46:47;5.00;99.90
11083;DHT22;5595;50.186;8.468;2023-04-03T07:49:16;5.00;99.90
11083;DHT22;5595;50.186;8.468;2023-04-03T07:51:45;4.90;99.90
11083;DHT22;5595;50.186;8.468;2023-04-03T07:54:12;5.20;99.90
11083;DHT22;5595;50.186;8.468;2023-04-03T07:56:39;4.80;99.90
11083;DHT22;5595;50.186;8.468;2023-04-03T07:59:08;4.80;99.90
11083;DHT22;5595;50.186;8.468;2023-04-03T08:01:35;4.90;99.90
11083;DHT22;5595;50.186;8.468;2023-04-03T08:04:03;5.10;99.90
11083;DHT22;5595;50.186;8.468;2023-04-03T08:06:31;5.00;99.90
11083;DHT22;5595;50.186;8.468;2023-04-03T08:09:02;5.10;99.90
11083;DHT22;5595;50.186;8.468;2023-04-03T08:11:29;5.00;99.90
11083;DHT22;5595;50.186;8.468;2023-04-03T08:13:57;5.00;99.90
11083;DHT22;5595;50.186;8.468;2023-04-03T08:16:24;5.00;99.90
11083;DHT22;5595;50.186;8.468;2023-04-03T08:18:53;5.30;99.90
11083;DHT22;5595;50.186;8.468;2023-04-03T08:21:20;5.40;99.90
11083;DHT22;5595;50.186;8.468;2023-04-03T08:23:49;5.40;99.90
11083;DHT22;5595;50.186;8.468;2023-04-03T08:26:20;5.70;99.90
11083;DHT22;5595;50.186;8.468;2023-04-03T08:28:47;5.80;99.90
11083;DHT22;5595;50.186;8.468;2023-04-03T08:31:17;5.80;99.90
11083;DHT22;5595;50.186;8.468;2023-04-03T08:33:47;5.70;99.90
11083;DHT22;5595;50.186;8.468;2023-04-03T08:36:19;5.70;99.90
11083;DHT22;5595;50.186;8.468;2023-04-03T08:38:46;5.70;99.90
11083;DHT22;5595;50.186;8.468;2023-04-03T08:41:19;6.00;99.90
11083;DHT22;5595;50.186;8.468;2023-04-03T08:43:56;6.30;99.90
11083;DHT22;5595;50.186;8.468;2023-04-03T08:46:35;6.50;99.90
11083;DHT22;5595;50.186;8.468;2023-04-03T08:49:13;6.60;99.90
11083;DHT22;5595;50.186;8.468;2023-04-03T08:51:51;6.90;99.90
11083;DHT22;5595;50.186;8.468;2023-04-03T08:54:28;7.10;99.90
11083;DHT22;5595;50.186;8.468;2023-04-03T08:57:01;7.20;99.90
11083;DHT22;5595;50.186;8.468;2023-04-03T08:59:34;7.40;99.90
11083;DHT22;5595;50.186;8.468;2023-04-03T09:02:04;7.40;99.90
11083;DHT22;5595;50.186;8.468;2023-04-03T09:04:42;7.40;99.90
11083;DHT22;5595;50.186;8.468;2023-04-03T09:07:16;7.50;99.90
11083;DHT22;5595;50.186;8.468;2023-04-03T09:09:48;7.70;99.90
11083;DHT22;5595;50.186;8.468;2023-04-03T09:12:23;8.00;99.90
11083;DHT22;5595;50.186;8.468;2023-04-03T09:14:59;8.10;99.90
11083;DHT22;5595;50.186;8.468;2023-04-03T09:17:41;7.80;99.90
11083;DHT22;5595;50.186;8.468;2023-04-03T09:20:21;7.50;99.90
11083;DHT22;5595;50.186;8.468;2023-04-03T09:22:51;7.30;99.90
11083;DHT22;5595;50.186;8.468;2023-04-03T09:25:21;7.10;99.90
11083;DHT22;5595;50.186;8.468;2023-04-03T09:27:51;6.90;99.90
11083;DHT22;5595;50.186;8.468;2023-04-03T09:30:20;6.70;99.90
11083;DHT22;5595;50.186;8.468;2023-04-03T09:32:49;6.50;99.90
11083;DHT22;5595;50.186;8.468;2023-04-03T09:35:23;6.60;99.90
11083;DHT22;5595;50.186;8.468;2023-04-03T09:37:51;6.70;99.90
11083;DHT22;5595;50.186;8.468;2023-04-03T09:40:33;6.90;99.90
11083;DHT22;5595;50.186;8.468;2023-04-03T09:43:20;7.00;99.90
11083;DHT22;5595;50.186;8.468;2023-04-03T09:45:49;7.20;99.90
11083;DHT22;5595;50.186;8.468;2023-04-03T09:48:19;7.10;99.90
11083;DHT22;5595;50.186;8.468;2023-04-03T09:50:55;6.90;99.90
11083;DHT22;5595;50.186;8.468;2023-04-03T09:53:32;7.00;99.90
11083;DHT22;5595;50.186;8.468;2023-04-03T09:56:00;6.70;99.90
11083;DHT22;5595;50.186;8.468;2023-04-03T09:58:31;6.70;99.90
11083;DHT22;5595;50.186;8.468;2023-04-03T10:01:04;6.60;99.90
11083;DHT22;5595;50.186;8.468;2023-04-03T10:03:33;6.70;99.90
11083;DHT22;5595;50.186;8.468;2023-04-03T10:06:02;6.60;99.90
11083;DHT22;5595;50.186;8.468;2023-04-03T10:08:31;6.60;99.90
11083;DHT22;5595;50.186;8.468;2023-04-03T10:11:15;6.60;99.90
11083;DHT22;5595;50.186;8.468;2023-04-03T10:13:52;6.70;99.90
11083;DHT22;5595;50.186;8.468;2023-04-03T10:16:22;6.80;99.90
11083;DHT22;5595;50.186;8.468;2023-04-03T10:18:57;6.70;99.90
11083;DHT22;5595;50.186;8.468;2023-04-03T10:21:35;6.70;99.90
11083;DHT22;5595;50.186;8.468;2023-04-03T10:24:11;6.40;99.90
11083;DHT22;5595;50.186;8.468;2023-04-03T10:26:47;6.40;99.90
11083;DHT22;5595;50.186;8.468;2023-04-03T10:29:33;6.40;99.90
11083;DHT22;5595;50.186;8.468;2023-04-03T10:32:13;6.60;99.90
11083;DHT22;5595;50.186;8.468;2023-04-03T10:34:43;6.90;99.90
11083;DHT22;5595;50.186;8.468;2023-04-03T10:37:17;6.80;99.90
11083;DHT22;5595;50.186;8.468;2023-04-03T10:39:54;6.90;99.90
11083;DHT22;5595;50.186;8.468;2023-04-03T10:42:28;6.70;99.90
11083;DHT22;5595;50.186;8.468;2023-04-03T10:45:15;6.50;99.90
11083;DHT22;5595;50.186;8.468;2023-04-03T10:47:51;6.70;99.90
11083;DHT22;5595;50.186;8.468;2023-04-03T10:50:31;6.70;99.90
11083;DHT22;5595;50.186;8.468;2023-04-03T10:53:08;6.70;99.90
11083;DHT22;5595;50.186;8.468;2023-04-03T10:55:40;6.60;99.90
11083;DHT22;5595;50.186;8.468;2023-04-03T10:58:14;6.30;99.90
11083;DHT22;5595;50.186;8.468;2023-04-03T11:00:48;6.30;99.90
11083;DHT22;5595;50.186;8.468;2023-04-03T11:03:25;6.20;99.90
11083;DHT22;5595;50.186;8.468;2023-04-03T11:06:07;6.10;99.90
11083;DHT22;5595;50.186;8.468;2023-04-03T11:08:42;6.40;99.90
11083;DHT22;5595;50.186;8.468;2023-04-03T11:11:16;6.30;99.90
11083;DHT22;5595;50.186;8.468;2023-04-03T11:13:49;6.20;99.90
11083;DHT22;5595;50.186;8.468;2023-04-03T11:16:28;6.40;99.90
11083;DHT22;5595;50.186;8.468;2023-04-03T11:19:01;6.70;99.90
11083;DHT22;5595;50.186;8.468;2023-04-03T11:21:33;6.80;99.90
11083;DHT22;5595;50.186;8.468;2023-04-03T11:24:08;6.40;99.90
11083;DHT22;5595;50.186;8.468;2023-04-03T11:26:50;6.40;99.90
11083;DHT22;5595;50.186;8.468;2023-04-03T11:29:24;6.70;99.90
11083;DHT22;5595;50.186;8.468;2023-04-03T11:32:09;6.20;99.20
11083;DHT22;5595;50.186;8.468;2023-04-03T11:34:41;6.70;99.40
11083;DHT22;5595;50.186;8.468;2023-04-03T11:37:20;6.50;99.10
11083;DHT22;5595;50.186;8.468;2023-04-03T11:39:54;6.60;99.40
11083;DHT22;5595;50.186;8.468;2023-04-03T11:42:29;6.70;99.20
11083;DHT22;5595;50.186;8.468;2023-04-03T11:45:23;6.90;99.60
11083;DHT22;5595;50.186;8.468;2023-04-03T11:47:55;7.10;99.00
11083;DHT22;5595;50.186;8.468;2023-04-03T11:50:41;7.00;99.00
11083;DHT22;5595;50.186;8.468;2023-04-03T11:53:31;7.10;99.10
11083;DHT22;5595;50.186;8.468;2023-04-03T11:56:02;7.30;99.00
11083;DHT22;5595;50.186;8.468;2023-04-03T11:58:32;7.40;98.30
11083;DHT22;5595;50.186;8.468;2023-04-03T12:01:07;7.50;97.70
11083;DHT22;5595;50.186;8.468;2023-04-03T12:07:01;7.40;96.20
11083;DHT22;5595;50.186;8.468;2023-04-03T12:09:52;7.30;97.00
11083;DHT22;5595;50.186;8.468;2023-04-03T12:12:34;7.50;96.80
11083;DHT22;5595;50.186;8.468;2023-04-03T12:15:25;7.50;96.60
11083;DHT22;5595;50.186;8.468;2023-04-03T12:17:52;7.50;95.90
11083;DHT22;5595;50.186;8.468;2023-04-03T12:20:57;7.70;96.30
11083;DHT22;5595;50.186;8.468;2023-04-03T12:23:34;7.90;96.60
11083;DHT22;5595;50.186;8.468;2023-04-03T12:26:05;8.10;96.30
11083;DHT22;5595;50.186;8.468;2023-04-03T12:28:39;8.20;96.40
11083;DHT22;5595;50.186;8.468;2023-04-03T12:31:10;8.40;96.10
11083;DHT22;5595;50.186;8.468;2023-04-03T12:34:05;8.30;94.90
11083;DHT22;5595;50.186;8.468;2023-04-03T12:36:42;8.10;95.40
11083;DHT22;5595;50.186;8.468;2023-04-03T12:39:33;7.70;94.40
11083;DHT22;5595;50.186;8.468;2023-04-03T12:42:15;7.60;95.00
11083;DHT22;5595;50.186;8.468;2023-04-03T12:44:52;7.50;94.60
11083;DHT22;5595;50.186;8.468;2023-04-03T12:47:28;7.30;93.90
11083;DHT22;5595;50.186;8.468;2023-04-03T12:49:56;7.40;94.60
11083;DHT22;5595;50.186;8.468;2023-04-03T12:52:35;7.50;94.80
11083;DHT22;5595;50.186;8.468;2023-04-03T12:55:15;7.50;94.40
11083;DHT22;5595;50.186;8.468;2023-04-03T12:57:42;7.40;94.20
11083;DHT22;5595;50.186;8.468;2023-04-03T13:00:30;7.40;94.00
11083;DHT22;5595;50.186;8.468;2023-04-03T13:03:01;7.40;93.50
11083;DHT22;5595;50.186;8.468;2023-04-03T13:05:29;7.40;93.80
11083;DHT22;5595;50.186;8.468;2023-04-03T13:08:02;7.30;93.40
11083;DHT22;5595;50.186;8.468;2023-04-03T13:10:32;7.40;93.50
11083;DHT22;5595;50.186;8.468;2023-04-03T13:13:10;7.40;93.70
11083;DHT22;5595;50.186;8.468;2023-04-03T13:15:42;7.50;93.30
11083;DHT22;5595;50.186;8.468;2023-04-03T13:18:29;7.50;92.90
11083;DHT22;5595;50.186;8.468;2023-04-03T13:21:07;7.50;92.70
11083;DHT22;5595;50.186;8.468;2023-04-03T13:23:37;7.40;92.40
11083;DHT22;5595;50.186;8.468;2023-04-03T13:26:07;7.30;92.90
11083;DHT22;5595;50.186;8.468;2023-04-03T13:28:35;7.30;92.90
11083;DHT22;5595;50.186;8.468;2023-04-03T13:31:07;7.30;93.00
11083;DHT22;5595;50.186;8.468;2023-04-03T13:33:38;7.30;93.10
11083;DHT22;5595;50.186;8.468;2023-04-03T13:36:16;7.50;93.70
11083;DHT22;5595;50.186;8.468;2023-04-03T13:38:44;7.60;93.70
11083;DHT22;5595;50.186;8.468;2023-04-03T13:41:28;7.60;92.50
11083;DHT22;5595;50.186;8.468;2023-04-03T13:43:56;7.50;92.70
11083;DHT22;5595;50.186;8.468;2023-04-03T13:46:25;7.40;92.60
11083;DHT22;5595;50.186;8.468;2023-04-03T13:48:55;7.40;92.60
11083;DHT22;5595;50.186;8.468;2023-04-03T13:51:27;7.40;92.60
11083;DHT22;5595;50.186;8.468;2023-04-03T13:53:57;7.30;91.80
11083;DHT22;5595;50.186;8.468;2023-04-03T13:56:31;7.20;91.90
11083;DHT22;5595;50.186;8.468;2023-04-03T13:59:18;7.20;92.20
11083;DHT22;5595;50.186;8.468;2023-04-03T14:01:49;7.40;92.60
11083;DHT22;5595;50.186;8.468;2023-04-03T14:04:20;7.30;92.40
11083;DHT22;5595;50.186;8.468;2023-04-03T14:06:49;7.30;91.80
11083;DHT22;5595;50.186;8.468;2023-04-03T14:09:18;7.20;91.50
11083;DHT22;5595;50.186;8.468;2023-04-03T14:11:49;7.10;91.60
11083;DHT22;5595;50.186;8.468;2023-04-03T14:14:19;7.00;91.30
11083;DHT22;5595;50.186;8.468;2023-04-03T14:16:50;7.00;91.20
11083;DHT22;5595;50.186;8.468;2023-04-03T14:19:21;7.00;91.50
11083;DHT22;5595;50.186;8.468;2023-04-03T14:21:49;7.00;91.30
11083;DHT22;5595;50.186;8.468;2023-04-03T14:24:18;7.10;91.60
11083;DHT22;5595;50.186;8.468;2023-04-03T14:26:49;7.10;91.50
11083;DHT22;5595;50.186;8.468;2023-04-03T14:29:17;7.20;91.50
11083;DHT22;5595;50.186;8.468;2023-04-03T14:31:48;7.30;91.40
11083;DHT22;5595;50.186;8.468;2023-04-03T14:34:15;7.10;91.50
11083;DHT22;5595;50.186;8.468;2023-04-03T14:36:44;7.10;91.90
11083;DHT22;5595;50.186;8.468;2023-04-03T14:39:17;7.20;92.00
11083;DHT22;5595;50.186;8.468;2023-04-03T14:41:47;7.20;91.40
11083;DHT22;5595;50.186;8.468;2023-04-03T14:44:15;7.00;90.80
11083;DHT22;5595;50.186;8.468;2023-04-03T14:46:43;7.00;91.00
11083;DHT22;5595;50.186;8.468;2023-04-03T14:49:15;7.10;91.50
11083;DHT22;5595;50.186;8.468;2023-04-03T14:51:44;7.00;91.30
11083;DHT22;5595;50.186;8.468;2023-04-03T14:54:17;7.20;91.80
11083;DHT22;5595;50.186;8.468;2023-04-03T14:56:47;7.20;91.70
11083;DHT22;5595;50.186;8.468;2023-04-03T14:59:15;7.30;92.10
11083;DHT22;5595;50.186;8.468;2023-04-03T15:01:45;7.30;92.40
11083;DHT22;5595;50.186;8.468;2023-04-03T15:04:14;7.30;92.50
11083;DHT22;5595;50.186;8.468;2023-04-03T15:06:42;7.30;92.50
11083;DHT22;5595;50.186;8.468;2023-04-03T15:09:18;7.10;92.30
11083;DHT22;5595;50.186;8.468;2023-04-03T15:11:51;7.20;91.90
11083;DHT22;5595;50.186;8.468;2023-04-03T15:14:19;7.10;92.20
11083;DHT22;5595;50.186;8.468;2023-04-03T15:16:46;7.20;92.10
11083;DHT22;5595;50.186;8.468;2023-04-03T15:19:14;7.50;91.70
11083;DHT22;5595;50.186;8.468;2023-04-03T15:21:41;7.40;91.60
11083;DHT22;5595;50.186;8.468;2023-04-03T15:24:09;7.00;91.70
11083;DHT22;5595;50.186;8.468;2023-04-03T15:26:40;7.00;92.10
11083;DHT22;5595;50.186;8.468;2023-04-03T15:29:09;6.90;91.80
11083;DHT22;5595;50.186;8.468;2023-04-03T15:31:39;6.80;92.30
11083;DHT22;5595;50.186;8.468;2023-04-03T15:34:09;6.70;91.70
11083;DHT22;5595;50.186;8.468;2023-04-03T15:36:41;6.50;91.70
11083;DHT22;5595;50.186;8.468;2023-04-03T15:39:08;6.60;91.90
11083;DHT22;5595;50.186;8.468;2023-04-03T15:41:36;6.50;92.10
11083;DHT22;5595;50.186;8.468;2023-04-03T15:44:07;6.50;91.90
11083;DHT22;5595;50.186;8.468;2023-04-03T15:46:37;6.50;91.70
11083;DHT22;5595;50.186;8.468;2023-04-03T15:49:05;6.40;91.90
11083;DHT22;5595;50.186;8.468;2023-04-03T15:51:37;6.40;91.80
11083;DHT22;5595;50.186;8.468;2023-04-03T15:54:05;6.40;91.80
11083;DHT22;5595;50.186;8.468;2023-04-03T15:56:32;6.20;91.60
11083;DHT22;5595;50.186;8.468;2023-04-03T15:58:59;6.30;91.60
11083;DHT22;5595;50.186;8.468;2023-04-03T16:01:32;6.20;91.50
11083;DHT22;5595;50.186;8.468;2023-04-03T16:04:03;6.20;91.70
11083;DHT22;5595;50.186;8.468;2023-04-03T16:06:30;6.10;91.70
11083;DHT22;5595;50.186;8.468;2023-04-03T16:09:03;6.10;91.70
11083;DHT22;5595;50.186;8.468;2023-04-03T16:11:30;6.00;91.90
11083;DHT22;5595;50.186;8.468;2023-04-03T16:13:58;6.00;92.10
11083;DHT22;5595;50.186;8.468;2023-04-03T16:16:29;6.00;91.90
11083;DHT22;5595;50.186;8.468;2023-04-03T16:19:02;5.90;91.90
11083;DHT22;5595;50.186;8.468;2023-04-03T16:21:36;5.90;91.90
11083;DHT22;5595;50.186;8.468;2023-04-03T16:24:04;5.80;92.10
11083;DHT22;5595;50.186;8.468;2023-04-03T16:26:33;5.80;91.90
11083;DHT22;5595;50.186;8.468;2023-04-03T16:29:01;5.80;91.90
11083;DHT22;5595;50.186;8.468;2023-04-03T16:31:32;5.70;91.70